createdAt,value
2022-09-17T00:00:20.622Z,97908.26
2022-09-17T00:03:26.985Z,97905.16
2022-09-17T00:06:34.098Z,97901.31
2022-09-17T00:09:40.149Z,97901.36
2022-09-17T00:12:45.986Z,97902.41
2022-09-17T00:15:52.603Z,97914.31
2022-09-17T00:18:59.670Z,97910.00
2022-09-17T00:22:05.546Z,97915.52
2022-09-17T00:25:12.211Z,97918.91
2022-09-17T00:28:19.571Z,97918.09
2022-09-17T00:31:26.341Z,97924.81
2022-09-17T00:34:32.192Z,97922.60
2022-09-17T00:37:38.094Z,97920.37
2022-09-17T00:40:43.989Z,97920.77
2022-09-17T00:43:52.141Z,97923.58
2022-09-17T00:46:58.952Z,97927.92
2022-09-17T00:50:09.210Z,97924.61
2022-09-17T00:53:18.714Z,97910.98
2022-09-17T00:56:28.095Z,97906.62
2022-09-17T00:59:34.347Z,97906.73
2022-09-17T01:02:39.086Z,97904.48
2022-09-17T01:05:50.170Z,97906.45
2022-09-17T01:09:14.870Z,97900.75
2022-09-17T01:12:38.170Z,97903.59
2022-09-17T01:15:50.369Z,97903.85
2022-09-17T01:19:11.925Z,97905.06
2022-09-17T01:22:25.563Z,97906.54
2022-09-17T01:25:45.681Z,97904.55
2022-09-17T01:28:58.515Z,97903.98
2022-09-17T01:32:11.326Z,97906.20
2022-09-17T01:35:23.165Z,97911.92
2022-09-17T01:38:36.149Z,97913.85
2022-09-17T01:41:47.745Z,97915.98
2022-09-17T01:45:01.819Z,97914.67
2022-09-17T01:48:12.874Z,97926.73
2022-09-17T01:51:22.290Z,97930.08
2022-09-17T01:54:32.605Z,97923.10
2022-09-17T01:57:43.891Z,97915.48
2022-09-17T02:00:53.500Z,97908.13
2022-09-17T02:04:04.633Z,97906.07
2022-09-17T02:07:16.333Z,97906.66
2022-09-17T02:10:25.251Z,97908.13
2022-09-17T02:13:37.564Z,97908.33
2022-09-17T02:16:49.534Z,97908.16
2022-09-17T02:19:56.861Z,97907.95
2022-09-17T02:23:09.239Z,97909.34
2022-09-17T02:26:19.614Z,97906.44
2022-09-17T02:29:33.626Z,97905.20
2022-09-17T02:32:39.717Z,97914.48
2022-09-17T02:35:47.797Z,97917.20
2022-09-17T02:39:03.119Z,97911.91
2022-09-17T02:42:17.716Z,97910.89
2022-09-17T02:45:37.471Z,97910.30
2022-09-17T02:49:08.849Z,97909.31
2022-09-17T02:52:27.059Z,97913.41
2022-09-17T02:55:42.883Z,97909.56
2022-09-17T02:58:54.686Z,97904.41
2022-09-17T03:02:05.175Z,97905.34
2022-09-17T03:05:12.024Z,97907.67
2022-09-17T03:08:20.419Z,97902.63
2022-09-17T03:11:26.925Z,97906.59
2022-09-17T03:14:32.911Z,97898.77
2022-09-17T03:17:39.095Z,97895.21
2022-09-17T03:20:43.554Z,97890.40
2022-09-17T03:23:50.691Z,97884.80
2022-09-17T03:26:57.145Z,97882.26
2022-09-17T03:30:03.033Z,97881.06
2022-09-17T03:33:09.128Z,97887.63
2022-09-17T03:36:15.275Z,97883.15
2022-09-17T03:39:21.330Z,97884.09
2022-09-17T03:42:27.525Z,97877.36
2022-09-17T03:45:31.784Z,97870.44
2022-09-17T03:48:39.867Z,97866.14
2022-09-17T03:51:45.966Z,97860.19
2022-09-17T03:54:52.092Z,97858.89
2022-09-17T03:57:58.168Z,97858.16
2022-09-17T04:01:04.833Z,97861.84
2022-09-17T04:04:11.141Z,97863.34
2022-09-17T04:07:17.278Z,97859.40
2022-09-17T04:10:23.759Z,97858.02
2022-09-17T04:13:29.955Z,97854.50
2022-09-17T04:16:34.223Z,97844.48
2022-09-17T04:19:40.198Z,97841.66
2022-09-17T04:22:46.043Z,97841.52
2022-09-17T04:25:51.986Z,97853.55
2022-09-17T04:28:58.121Z,97853.65
2022-09-17T04:32:04.694Z,97847.84
2022-09-17T04:35:11.257Z,97845.63
2022-09-17T04:38:18.748Z,97855.73
2022-09-17T04:41:24.627Z,97863.17
2022-09-17T04:44:30.517Z,97859.26
2022-09-17T04:47:39.333Z,97858.65
2022-09-17T04:50:45.203Z,97865.59
2022-09-17T04:53:51.367Z,97860.04
2022-09-17T04:56:57.486Z,97849.96
2022-09-17T05:00:03.914Z,97847.94
2022-09-17T05:03:10.229Z,97851.61
2022-09-17T05:06:16.434Z,97843.23
2022-09-17T05:09:20.938Z,97842.80
2022-09-17T05:12:29.259Z,97847.06
2022-09-17T05:15:38.671Z,97856.45
2022-09-17T05:18:43.229Z,97863.28
2022-09-17T05:21:49.090Z,97863.46
2022-09-17T05:24:54.959Z,97863.89
2022-09-17T05:28:02.302Z,97859.45
2022-09-17T05:31:09.053Z,97858.04
2022-09-17T05:34:15.355Z,97859.52
2022-09-17T05:37:19.798Z,97850.60
2022-09-17T05:40:24.084Z,97856.89
2022-09-17T05:43:28.384Z,97860.94
2022-09-17T05:46:32.650Z,97863.00
2022-09-17T05:49:37.063Z,97863.84
2022-09-17T05:52:41.539Z,97863.77
2022-09-17T05:55:45.752Z,97864.50
2022-09-17T05:58:50.022Z,97870.54
2022-09-17T06:01:54.326Z,97869.33
2022-09-17T06:05:00.934Z,97872.98
2022-09-17T06:08:05.824Z,97878.43
2022-09-17T06:11:10.901Z,97883.98
2022-09-17T06:14:15.648Z,97871.74
2022-09-17T06:17:22.183Z,97866.30
2022-09-17T06:20:26.663Z,97863.06
2022-09-17T06:23:35.377Z,97871.92
2022-09-17T06:26:39.617Z,97872.58
2022-09-17T06:29:43.810Z,97873.10
2022-09-17T06:32:48.026Z,97874.63
2022-09-17T06:35:57.341Z,97871.89
2022-09-17T06:39:01.673Z,97865.98
2022-09-17T06:42:06.426Z,97861.45
2022-09-17T06:45:16.378Z,97858.45
2022-09-17T06:48:21.098Z,97858.48
2022-09-17T06:51:25.289Z,97853.02
2022-09-17T06:54:29.518Z,97844.93
2022-09-17T06:57:33.743Z,97843.96
2022-09-17T07:00:37.977Z,97851.26
2022-09-17T07:03:44.122Z,97849.68
2022-09-17T07:06:48.341Z,97848.70
2022-09-17T07:09:53.833Z,97848.09
2022-09-17T07:12:58.118Z,97848.51
2022-09-17T07:16:03.423Z,97853.55
2022-09-17T07:19:09.012Z,97849.83
2022-09-17T07:22:14.154Z,97862.11
2022-09-17T07:25:18.366Z,97870.90
2022-09-17T07:28:22.768Z,97873.81
2022-09-17T07:31:27.061Z,97869.00
2022-09-17T07:34:31.303Z,97868.30
2022-09-17T07:37:35.558Z,97873.54
2022-09-17T07:40:39.746Z,97875.93
2022-09-17T07:43:44.354Z,97876.15
2022-09-17T07:46:48.623Z,97877.45
2022-09-17T07:49:52.861Z,97883.20
2022-09-17T07:52:57.065Z,97891.35
2022-09-17T07:56:01.818Z,97896.88
2022-09-17T07:59:06.390Z,97895.03
2022-09-17T08:02:13.052Z,97891.27
2022-09-17T08:05:17.445Z,97891.05
2022-09-17T08:08:21.656Z,97884.98
2022-09-17T08:11:51.659Z,97878.23
2022-09-17T08:14:51.424Z,97876.89
2022-09-17T08:17:55.620Z,97876.80
2022-09-17T08:21:00.509Z,97873.75
2022-09-17T08:24:05.042Z,97866.32
2022-09-17T08:27:09.239Z,97866.30
2022-09-17T08:30:13.704Z,97860.64
2022-09-17T08:33:18.230Z,97852.51
2022-09-17T08:36:23.047Z,97855.85
2022-09-17T08:39:27.380Z,97852.91
2022-09-17T08:42:38.849Z,97851.83
2022-09-17T08:45:43.421Z,97859.61
2022-09-17T08:48:51.295Z,97861.77
2022-09-17T08:52:03.363Z,97860.01
2022-09-17T08:55:15.345Z,97859.23
2022-09-17T08:58:36.725Z,97858.52
2022-09-17T09:01:43.905Z,97861.45
2022-09-17T09:05:03.641Z,97855.84
2022-09-17T09:08:14.064Z,97848.45
2022-09-17T09:11:20.132Z,97850.91
2022-09-17T09:14:26.442Z,97855.02
2022-09-17T09:17:33.725Z,97854.21
2022-09-17T09:20:42.942Z,97851.75
2022-09-17T09:23:53.651Z,97857.07
2022-09-17T09:27:02.610Z,97855.42
2022-09-17T09:30:08.802Z,97853.39
2022-09-17T09:33:15.512Z,97849.05
2022-09-17T09:36:22.149Z,97836.84
2022-09-17T09:39:32.247Z,97844.40
2022-09-17T09:42:40.381Z,97860.57
2022-09-17T09:45:50.413Z,97874.95
2022-09-17T09:49:01.453Z,97870.95
2022-09-17T09:52:11.430Z,97869.40
2022-09-17T09:55:26.851Z,97867.56
2022-09-17T09:58:35.733Z,97873.88
2022-09-17T10:01:41.785Z,97871.63
2022-09-17T10:04:48.319Z,97873.16
2022-09-17T10:07:55.790Z,97879.38
2022-09-17T10:11:01.528Z,97885.33
2022-09-17T10:14:17.480Z,97897.48
2022-09-17T10:17:23.001Z,97896.48
2022-09-17T10:20:27.290Z,97894.59
2022-09-17T10:23:34.632Z,97898.00
2022-09-17T10:26:39.338Z,97892.56
2022-09-17T10:29:46.142Z,97897.23
2022-09-17T10:33:11.438Z,97896.11
2022-09-17T10:36:15.641Z,97900.92
2022-09-17T10:39:36.827Z,97886.80
2022-09-17T10:42:40.998Z,97883.27
2022-09-17T10:45:46.774Z,97886.81
2022-09-17T10:48:58.558Z,97882.05
2022-09-17T10:52:11.730Z,97883.00
2022-09-17T10:55:22.590Z,97880.54
2022-09-17T10:58:34.185Z,97886.20
2022-09-17T11:01:46.095Z,97887.14
2022-09-17T11:04:55.683Z,97886.13
2022-09-17T11:08:06.587Z,97882.89
2022-09-17T11:11:11.909Z,97893.74
2022-09-17T11:14:22.025Z,97897.83
2022-09-17T11:17:46.949Z,97898.81
2022-09-17T11:21:08.942Z,97893.58
2022-09-17T11:24:30.886Z,97892.27
2022-09-17T11:27:47.240Z,97894.02
2022-09-17T11:30:56.008Z,97896.17
2022-09-17T11:34:23.454Z,97895.75
2022-09-17T11:37:30.138Z,97901.39
2022-09-17T11:40:39.181Z,97896.62
2022-09-17T11:43:46.373Z,97900.93
2022-09-17T11:46:54.134Z,97903.80
2022-09-17T11:50:01.877Z,97900.85
2022-09-17T11:53:09.954Z,97895.50
2022-09-17T11:56:17.035Z,97891.70
2022-09-17T11:59:24.349Z,97890.31
2022-09-17T12:02:37.786Z,97885.11
2022-09-17T12:05:44.599Z,97879.98
2022-09-17T12:08:55.091Z,97877.89
2022-09-17T12:12:02.325Z,97874.17
2022-09-17T12:15:08.706Z,97872.22
2022-09-17T12:18:31.853Z,97873.87
2022-09-17T12:21:39.257Z,97864.20
2022-09-17T12:24:43.751Z,97855.01
2022-09-17T12:27:54.295Z,97861.89
2022-09-17T12:31:03.696Z,97862.29
2022-09-17T12:34:19.314Z,97850.52
2022-09-17T12:37:28.290Z,97845.50
2022-09-17T12:40:33.772Z,97839.84
2022-09-17T12:43:55.362Z,97831.63
2022-09-17T12:47:09.733Z,97829.90
2022-09-17T12:50:20.346Z,97830.20
2022-09-17T12:53:29.891Z,97828.70
2022-09-17T12:56:40.834Z,97824.25
2022-09-17T12:59:49.274Z,97816.36
2022-09-17T13:02:59.372Z,97804.47
2022-09-17T13:06:16.952Z,97801.33
2022-09-17T13:09:40.551Z,97794.75
2022-09-17T13:12:47.607Z,97787.11
2022-09-17T13:15:59.421Z,97791.21
2022-09-17T13:19:15.972Z,97799.34
2022-09-17T13:22:21.939Z,97799.71
2022-09-17T13:25:27.282Z,97795.13
2022-09-17T13:28:43.296Z,97804.12
2022-09-17T13:31:51.153Z,97798.81
2022-09-17T13:34:55.533Z,97791.60
2022-09-17T13:38:00.330Z,97793.78
2022-09-17T13:41:17.935Z,97801.83
2022-09-17T13:44:24.166Z,97803.35
2022-09-17T13:47:31.257Z,97808.79
2022-09-17T13:50:36.891Z,97813.23
2022-09-17T13:53:41.178Z,97808.62
2022-09-17T13:56:47.254Z,97801.23
2022-09-17T13:59:55.950Z,97800.38
2022-09-17T14:03:20.139Z,97790.58
2022-09-17T14:06:41.398Z,97780.80
2022-09-17T14:09:55.781Z,97792.83
2022-09-17T14:13:02.858Z,97795.29
2022-09-17T14:16:24.781Z,97793.58
2022-09-17T14:19:37.031Z,97781.98
2022-09-17T14:22:41.631Z,97779.79
2022-09-17T14:25:49.621Z,97777.04
2022-09-17T14:28:57.286Z,97785.16
2022-09-17T14:32:01.648Z,97782.07
2022-09-17T14:35:19.937Z,97789.93
2022-09-17T14:38:25.856Z,97792.40
2022-09-17T14:41:35.664Z,97783.69
2022-09-17T14:44:48.314Z,97777.79
2022-09-17T14:48:12.610Z,97766.12
2022-09-17T14:51:26.073Z,97760.65
2022-09-17T14:54:35.834Z,97756.55
2022-09-17T14:57:40.807Z,97755.59
2022-09-17T15:00:52.023Z,97758.83
2022-09-17T15:04:09.601Z,97769.13
2022-09-17T15:07:14.960Z,97756.54
2022-09-17T15:10:20.152Z,97754.36
2022-09-17T15:13:27.354Z,97762.17
2022-09-17T15:16:33.535Z,97757.05
2022-09-17T15:19:39.049Z,97760.61
2022-09-17T15:22:45.254Z,97768.92
2022-09-17T15:25:50.649Z,97771.83
2022-09-17T15:28:56.415Z,97772.60
2022-09-17T15:32:01.533Z,97776.16
2022-09-17T15:35:28.307Z,97772.88
2022-09-17T15:38:33.655Z,97777.09
2022-09-17T15:41:39.789Z,97782.99
2022-09-17T15:44:45.060Z,97791.54
2022-09-17T15:47:56.695Z,97794.71
2022-09-17T15:51:02.053Z,97796.73
2022-09-17T15:54:09.391Z,97799.34
2022-09-17T15:57:17.682Z,97794.14
2022-09-17T16:00:22.457Z,97794.66
2022-09-17T16:03:44.552Z,97798.44
2022-09-17T16:06:53.186Z,97802.31
2022-09-17T16:09:59.503Z,97801.04
2022-09-17T16:13:03.757Z,97800.84
2022-09-17T16:16:12.579Z,97797.30
2022-09-17T16:19:16.801Z,97797.63
2022-09-17T16:22:21.184Z,97801.05
2022-09-17T16:25:27.306Z,97798.55
2022-09-17T16:28:32.046Z,97796.36
2022-09-17T16:31:36.315Z,97793.09
2022-09-17T16:34:40.529Z,97798.52
2022-09-17T16:37:44.805Z,97798.98
2022-09-17T16:40:49.968Z,97796.61
2022-09-17T16:43:54.210Z,97791.98
2022-09-17T16:46:58.601Z,97786.30
2022-09-17T16:50:02.886Z,97782.76
2022-09-17T16:53:07.076Z,97782.13
2022-09-17T16:56:11.860Z,97779.48
2022-09-17T16:59:16.340Z,97774.92
2022-09-17T17:02:20.537Z,97780.81
2022-09-17T17:05:25.210Z,97777.58
2022-09-17T17:08:29.428Z,97774.71
2022-09-17T17:11:33.848Z,97776.11
2022-09-17T17:14:38.174Z,97780.95
2022-09-17T17:17:42.402Z,97782.91
2022-09-17T17:20:47.689Z,97781.63
2022-09-17T17:23:52.524Z,97780.22
2022-09-17T17:26:56.922Z,97785.65
2022-09-17T17:30:04.624Z,97782.27
2022-09-17T17:33:08.846Z,97783.15
2022-09-17T17:36:14.226Z,97776.85
2022-09-17T17:39:18.530Z,97775.05
2022-09-17T17:42:22.738Z,97772.18
2022-09-17T17:45:26.945Z,97774.68
2022-09-17T17:48:31.173Z,97771.27
2022-09-17T17:51:35.635Z,97770.51
2022-09-17T17:54:39.871Z,97763.58
2022-09-17T17:57:44.137Z,97758.88
2022-09-17T18:00:48.373Z,97760.34
2022-09-17T18:03:56.728Z,97762.77
2022-09-17T18:07:00.918Z,97761.15
2022-09-17T18:10:05.498Z,97758.73
2022-09-17T18:13:09.916Z,97759.96
2022-09-17T18:16:15.575Z,97764.57
2022-09-17T18:19:19.917Z,97768.02
2022-09-17T18:22:24.142Z,97773.33
2022-09-17T18:25:28.909Z,97772.32
2022-09-17T18:28:34.961Z,97776.61
2022-09-17T18:31:39.434Z,97779.61
2022-09-17T18:34:43.901Z,97778.30
2022-09-17T18:37:48.103Z,97778.47
2022-09-17T18:40:52.751Z,97773.71
2022-09-17T18:43:56.950Z,97785.21
2022-09-17T18:47:01.237Z,97791.56
2022-09-17T18:50:05.754Z,97790.39
2022-09-17T18:53:10.139Z,97786.31
2022-09-17T18:56:16.366Z,97777.61
2022-09-17T18:59:20.861Z,97785.83
2022-09-17T19:02:25.411Z,97792.84
2022-09-17T19:05:30.614Z,97792.34
2022-09-17T19:08:35.129Z,97790.46
2022-09-17T19:11:39.350Z,97789.28
2022-09-17T19:14:43.594Z,97787.95
2022-09-17T19:17:47.766Z,97785.60
2022-09-17T19:20:51.982Z,97782.83
2022-09-17T19:23:56.530Z,97781.55
2022-09-17T19:27:01.767Z,97780.17
2022-09-17T19:30:07.001Z,97788.69
2022-09-17T19:33:11.298Z,97785.88
2022-09-17T19:36:16.573Z,97782.89
2022-09-17T19:39:20.766Z,97779.06
2022-09-17T19:42:25.912Z,97784.88
2022-09-17T19:45:31.134Z,97779.81
2022-09-17T19:48:36.695Z,97773.15
2022-09-17T19:51:42.219Z,97770.55
2022-09-17T19:54:46.412Z,97771.81
2022-09-17T19:57:50.607Z,97768.02
2022-09-17T20:00:57.446Z,97770.46
2022-09-17T20:04:02.056Z,97771.77
2022-09-17T20:07:06.385Z,97760.34
2022-09-17T20:10:10.982Z,97758.86
2022-09-17T20:13:15.438Z,97759.02
2022-09-17T20:16:21.018Z,97759.38
2022-09-17T20:19:25.623Z,97763.54
2022-09-17T20:22:30.507Z,97764.40
2022-09-17T20:25:35.083Z,97759.44
2022-09-17T20:28:39.305Z,97751.21
2022-09-17T20:31:43.624Z,97748.25
2022-09-17T20:34:50.046Z,97747.74
2022-09-17T20:39:00.003Z,97749.36
2022-09-17T20:41:19.142Z,97754.71
2022-09-17T20:44:23.602Z,97754.99
2022-09-17T20:47:28.026Z,97755.59
2022-09-17T20:50:32.552Z,97753.08
2022-09-17T20:53:37.534Z,97750.43
2022-09-17T20:56:42.329Z,97748.06
2022-09-17T20:59:53.112Z,97747.27
2022-09-17T21:02:57.674Z,97746.84
2022-09-17T21:06:02.001Z,97746.02
2022-09-17T21:09:07.369Z,97740.91
2022-09-17T21:12:11.889Z,97738.96
2022-09-17T21:15:16.185Z,97732.13
2022-09-17T21:18:20.386Z,97730.52
2022-09-17T21:21:24.675Z,97728.09
2022-09-17T21:24:28.878Z,97725.70
2022-09-17T21:27:33.630Z,97722.73
2022-09-17T21:30:38.094Z,97724.79
2022-09-17T21:33:43.187Z,97728.83
2022-09-17T21:36:48.387Z,97726.31
2022-09-17T21:39:52.607Z,97725.80
2022-09-17T21:42:57.089Z,97726.36
2022-09-17T21:46:02.256Z,97732.23
2022-09-17T21:49:06.561Z,97738.51
2022-09-17T21:52:10.930Z,97734.31
2022-09-17T21:55:15.419Z,97735.31
2022-09-17T21:58:19.619Z,97735.23
2022-09-17T22:01:25.293Z,97734.18
2022-09-17T22:04:29.541Z,97732.79
2022-09-17T22:07:33.968Z,97736.95
2022-09-17T22:10:38.205Z,97736.36
2022-09-17T22:13:42.795Z,97736.06
2022-09-17T22:16:47.994Z,97735.20
2022-09-17T22:19:52.402Z,97731.38
2022-09-17T22:22:56.828Z,97731.45
2022-09-17T22:26:05.513Z,97732.05
2022-09-17T22:29:10.650Z,97730.08
2022-09-17T22:32:15.205Z,97731.61
2022-09-17T22:35:19.413Z,97737.38
2022-09-17T22:38:23.598Z,97739.45
2022-09-17T22:41:28.660Z,97737.02
2022-09-17T22:44:32.839Z,97738.23
2022-09-17T22:47:37.203Z,97741.44
2022-09-17T22:50:41.689Z,97736.62
2022-09-17T22:53:46.298Z,97740.17
2022-09-17T22:56:50.780Z,97733.86
2022-09-17T22:59:55.218Z,97732.96
2022-09-17T23:02:59.477Z,97732.77
2022-09-17T23:06:04.921Z,97726.65
2022-09-17T23:09:09.305Z,97722.73
2022-09-17T23:12:13.738Z,97719.30
2022-09-17T23:15:18.633Z,97717.77
2022-09-17T23:18:23.126Z,97717.87
2022-09-17T23:21:27.566Z,97716.92
2022-09-17T23:24:34.421Z,97712.29
2022-09-17T23:27:38.853Z,97710.80
2022-09-17T23:30:43.547Z,97709.44
2022-09-17T23:33:48.778Z,97708.79
2022-09-17T23:36:53.512Z,97708.40
2022-09-17T23:39:57.982Z,97709.31
2022-09-17T23:43:02.270Z,97704.34
2022-09-17T23:46:07.000Z,97700.23
2022-09-17T23:49:13.224Z,97703.22
2022-09-17T23:52:17.557Z,97698.48
2022-09-17T23:55:21.753Z,97697.98
2022-09-17T23:58:26.154Z,97696.42
